Sakata, Japan
Current Conditions -  °F | °C
As of 7:00 PM on Thursday 29 Jan 2015 (Local Time) from RJSY Reporting Station
Snow Showers Snow Showers  
Wind Chill: 26°   Ceiling: 4000
Heat Index: 32°   Visibility: 6mi
Dew Point: 27°   Wind: 6mph
Humidity: 80%   Direction: 130°SE
Pressure: 30.33"   Gusts: NA
Location:  38.91°N, 139.83°E
Report Text: RJSY 291000Z 13005KT 9999 -SHSN FEW015 BKN040 00/M03 Q1027
Loading
Personal Weather Stations






























Interactive Weather Map New forecast layout! Learn more

10-Day Weather Forecast

Advertisements
Track Severe Weather on mobile